createdAt,value
2022-11-07T04:09:10.449Z,5.80
2022-11-07T04:12:00.296Z,5.90
2022-11-07T04:14:47.625Z,6.00
2022-11-07T04:17:22.131Z,6.00
2022-11-07T04:19:52.653Z,6.10
2022-11-07T04:22:20.867Z,6.20
2022-11-07T04:24:50.577Z,6.20
2022-11-07T04:27:37.911Z,6.20
2022-11-07T04:30:20.171Z,6.20
2022-11-07T04:32:49.253Z,6.40
2022-11-07T04:35:18.835Z,6.50
2022-11-07T04:37:47.624Z,6.60
2022-11-07T04:40:18.401Z,6.60
2022-11-07T04:42:47.474Z,6.60
2022-11-07T04:45:16.472Z,6.70
2022-11-07T04:47:44.960Z,6.70
2022-11-07T04:50:15.021Z,6.80
2022-11-07T04:52:43.859Z,6.80
2022-11-07T04:55:20.731Z,6.80
2022-11-07T04:57:49.345Z,6.80
2022-11-07T05:00:18.507Z,6.90
2022-11-07T05:02:46.877Z,6.90
2022-11-07T05:05:15.582Z,6.90
2022-11-07T05:07:44.491Z,7.00
2022-11-07T05:10:20.772Z,7.00
2022-11-07T05:12:49.272Z,7.00
2022-11-07T05:15:17.763Z,7.00
2022-11-07T05:17:46.334Z,7.10
2022-11-07T05:20:27.847Z,7.10
2022-11-07T05:23:17.738Z,7.10
2022-11-07T05:25:49.512Z,7.10
2022-11-07T05:28:25.691Z,7.10
2022-11-07T05:31:00.829Z,7.20
2022-11-07T05:33:30.246Z,7.20
2022-11-07T05:35:58.626Z,7.20
2022-11-07T05:38:26.911Z,7.20
2022-11-07T05:40:56.692Z,7.20
2022-11-07T05:43:25.117Z,7.30
2022-11-07T05:46:00.731Z,7.30
2022-11-07T05:48:30.623Z,7.30
2022-11-07T05:51:03.934Z,7.40
2022-11-07T05:53:32.594Z,7.40
2022-11-07T05:56:02.550Z,7.50
2022-11-07T05:58:30.965Z,7.50
2022-11-07T06:01:03.355Z,7.60
2022-11-07T06:03:31.999Z,7.60
2022-11-07T06:06:00.641Z,7.60
2022-11-07T06:08:31.198Z,7.70
2022-11-07T06:11:05.038Z,7.70
2022-11-07T06:13:34.815Z,7.70
2022-11-07T06:16:03.443Z,7.80
2022-11-07T06:18:31.865Z,7.80
2022-11-07T06:21:03.101Z,7.80
2022-11-07T06:23:31.728Z,7.80
2022-11-07T06:26:01.438Z,7.90
2022-11-07T06:28:29.965Z,7.90
2022-11-07T06:31:01.208Z,8.00
2022-11-07T06:33:32.832Z,8.00
2022-11-07T06:36:09.472Z,8.00
2022-11-07T06:38:38.375Z,8.10
2022-11-07T06:41:09.543Z,8.10
2022-11-07T06:43:38.290Z,8.10
2022-11-07T06:46:08.697Z,8.10
2022-11-07T06:48:37.280Z,8.10
2022-11-07T06:51:06.969Z,8.20
2022-11-07T06:53:35.415Z,8.20
2022-11-07T06:56:05.831Z,8.20
2022-11-07T06:58:35.886Z,8.20
2022-11-07T07:01:05.635Z,8.20
2022-11-07T07:03:34.028Z,8.30
2022-11-07T07:06:03.427Z,8.30
2022-11-07T07:08:32.217Z,8.30
2022-11-07T07:11:03.760Z,8.30
2022-11-07T07:13:32.260Z,8.30
2022-11-07T07:16:02.165Z,8.30
2022-11-07T07:18:31.149Z,8.40
2022-11-07T07:21:05.459Z,8.40
2022-11-07T07:23:34.974Z,8.50
2022-11-07T07:26:03.400Z,8.50
2022-11-07T07:28:31.940Z,8.50
2022-11-07T07:31:12.395Z,8.50
2022-11-07T07:33:41.490Z,8.50
2022-11-07T07:36:10.692Z,8.50
2022-11-07T07:38:39.405Z,8.60
2022-11-07T07:41:08.664Z,8.60
2022-11-07T07:43:36.989Z,8.70
2022-11-07T07:46:07.418Z,8.80
2022-11-07T07:48:37.356Z,8.80
2022-11-07T07:51:05.830Z,8.80
2022-11-07T07:53:34.109Z,8.80
2022-11-07T07:56:05.693Z,8.80
2022-11-07T07:58:34.439Z,8.80
2022-11-07T08:01:03.576Z,8.80
2022-11-07T08:03:50.654Z,8.80
2022-11-07T08:06:21.943Z,8.90
2022-11-07T08:08:50.370Z,8.90
2022-11-07T08:11:25.433Z,8.90
2022-11-07T08:13:58.369Z,9.00
2022-11-07T08:16:29.534Z,9.00
2022-11-07T08:18:58.000Z,9.00
2022-11-07T08:21:28.101Z,9.00
2022-11-07T08:23:58.971Z,9.10
2022-11-07T08:26:27.500Z,9.10
2022-11-07T08:28:58.094Z,9.20
2022-11-07T08:31:27.702Z,9.30
2022-11-07T08:33:59.759Z,9.30
2022-11-07T08:36:29.881Z,9.40
2022-11-07T08:38:58.307Z,9.40
2022-11-07T08:41:27.802Z,9.50
2022-11-07T08:43:57.885Z,9.50
2022-11-07T08:46:26.350Z,9.60
2022-11-07T08:48:54.823Z,9.60
2022-11-07T08:51:23.374Z,9.60
2022-11-07T08:53:53.227Z,9.60
2022-11-07T08:56:23.423Z,9.70
2022-11-07T08:58:51.964Z,9.80
2022-11-07T09:01:20.508Z,9.90
2022-11-07T09:03:56.808Z,10.00
2022-11-07T09:06:26.939Z,10.00
2022-11-07T09:08:56.836Z,10.10
2022-11-07T09:11:25.616Z,10.20
2022-11-07T09:13:54.740Z,10.30
2022-11-07T09:16:24.021Z,10.40
2022-11-07T09:18:53.518Z,10.50
2022-11-07T09:21:22.813Z,10.60
2022-11-07T09:23:51.899Z,10.70
2022-11-07T09:26:21.838Z,10.70
2022-11-07T09:28:53.151Z,10.70
2022-11-07T09:31:26.838Z,10.80
2022-11-07T09:33:55.318Z,10.90
2022-11-07T09:36:24.313Z,11.00
2022-11-07T09:38:56.395Z,11.10
2022-11-07T09:41:40.520Z,11.30
2022-11-07T09:44:30.945Z,11.50
2022-11-07T09:47:07.206Z,11.50
2022-11-07T09:49:39.130Z,11.50
2022-11-07T09:52:16.692Z,11.50
2022-11-07T09:54:47.790Z,11.50
2022-11-07T09:57:19.652Z,11.40
2022-11-07T09:59:54.613Z,11.40
2022-11-07T10:02:27.146Z,11.30
2022-11-07T10:04:59.381Z,11.40
2022-11-07T10:07:38.016Z,11.40
2022-11-07T10:10:14.940Z,11.40
2022-11-07T10:13:05.852Z,11.40
2022-11-07T10:15:44.469Z,11.40
2022-11-07T10:18:23.869Z,11.50
2022-11-07T10:21:35.374Z,11.50
2022-11-07T10:24:05.481Z,11.50
2022-11-07T10:26:34.237Z,11.50
2022-11-07T10:29:14.363Z,11.50
2022-11-07T10:31:46.065Z,11.60
2022-11-07T10:34:21.356Z,11.60
2022-11-07T10:36:50.284Z,11.60
2022-11-07T10:39:20.195Z,11.70
2022-11-07T10:42:01.216Z,11.70
2022-11-07T10:44:31.352Z,11.70
2022-11-07T10:46:59.705Z,11.80
2022-11-07T10:49:29.987Z,11.80
2022-11-07T10:52:08.525Z,11.90
2022-11-07T10:54:36.964Z,11.90
2022-11-07T10:57:07.377Z,12.00
2022-11-07T10:59:40.449Z,11.90
2022-11-07T11:02:21.737Z,12.00
2022-11-07T11:04:51.491Z,12.00
2022-11-07T11:07:24.192Z,12.00
2022-11-07T11:09:57.024Z,12.00
2022-11-07T11:12:27.989Z,12.00
2022-11-07T11:15:12.386Z,11.90
2022-11-07T11:17:41.452Z,11.90
2022-11-07T11:20:29.515Z,11.90
2022-11-07T11:22:57.930Z,11.90
2022-11-07T11:25:26.289Z,11.80
2022-11-07T11:27:59.570Z,11.80
2022-11-07T11:30:31.286Z,11.80
2022-11-07T11:33:06.486Z,11.70
2022-11-07T11:35:41.945Z,11.70
2022-11-07T11:38:18.442Z,11.80
2022-11-07T11:40:54.458Z,11.90
2022-11-07T11:43:34.822Z,12.00
2022-11-07T11:46:11.001Z,12.00
2022-11-07T11:48:45.153Z,12.00
2022-11-07T11:51:20.625Z,12.00
2022-11-07T11:53:49.370Z,11.90
2022-11-07T11:56:39.030Z,11.90
2022-11-07T11:59:35.443Z,11.90
2022-11-07T12:02:23.627Z,11.90
2022-11-07T12:05:02.701Z,12.00
2022-11-07T12:07:46.006Z,12.00
2022-11-07T12:10:20.993Z,12.00
2022-11-07T12:13:01.580Z,12.10
2022-11-07T12:15:45.242Z,12.00
2022-11-07T12:18:23.318Z,11.90
2022-11-07T12:21:03.316Z,11.80
2022-11-07T12:23:48.197Z,11.70
2022-11-07T12:26:24.379Z,11.70
2022-11-07T12:29:02.350Z,11.60
2022-11-07T12:31:40.915Z,11.60
2022-11-07T12:34:21.542Z,11.60
2022-11-07T12:37:01.778Z,11.60
2022-11-07T12:39:50.727Z,11.60
2022-11-07T12:42:32.477Z,11.50
2022-11-07T12:45:13.691Z,11.60
2022-11-07T12:48:11.846Z,11.50
2022-11-07T12:50:50.610Z,11.60
2022-11-07T12:53:30.965Z,11.50
2022-11-07T12:56:04.016Z,11.50
2022-11-07T12:58:36.279Z,11.40
2022-11-07T13:01:08.244Z,11.30
2022-11-07T13:04:07.039Z,11.10
2022-11-07T13:06:43.578Z,11.10
2022-11-07T13:09:21.322Z,11.00
2022-11-07T13:11:56.501Z,11.00
2022-11-07T13:14:32.246Z,11.00
2022-11-07T13:17:15.836Z,11.10
2022-11-07T13:19:46.192Z,11.20
2022-11-07T13:22:34.388Z,11.30
2022-11-07T13:25:25.301Z,11.30
2022-11-07T13:28:24.814Z,11.30
2022-11-07T13:31:01.209Z,11.30
2022-11-07T13:33:34.831Z,11.20
2022-11-07T13:36:14.647Z,11.10
2022-11-07T13:38:51.247Z,11.10
2022-11-07T13:41:20.763Z,11.00
2022-11-07T13:43:55.666Z,10.90
2022-11-07T13:46:30.887Z,10.90
2022-11-07T13:49:02.083Z,11.00
2022-11-07T13:51:35.706Z,10.90
2022-11-07T13:54:16.806Z,10.90
2022-11-07T13:56:50.315Z,10.90
2022-11-07T13:59:36.928Z,10.90
2022-11-07T14:02:07.212Z,10.80
2022-11-07T14:04:44.682Z,10.80
2022-11-07T14:07:26.566Z,10.80
2022-11-07T14:10:00.150Z,10.70
2022-11-07T14:12:31.746Z,10.60
2022-11-07T14:15:01.548Z,10.60
2022-11-07T14:17:34.305Z,10.50
2022-11-07T14:20:16.641Z,10.50
2022-11-07T14:22:53.308Z,10.50
2022-11-07T14:25:29.698Z,10.50
2022-11-07T14:27:59.057Z,10.50
2022-11-07T14:30:29.218Z,10.50
2022-11-07T14:32:59.564Z,10.50
2022-11-07T14:35:30.244Z,10.50
2022-11-07T14:37:59.558Z,10.50
2022-11-07T14:40:30.081Z,10.50
2022-11-07T14:43:00.960Z,10.60
2022-11-07T14:46:05.629Z,10.50
2022-11-07T14:48:21.060Z,10.50
2022-11-07T14:50:49.884Z,10.50
2022-11-07T14:53:23.580Z,10.40
2022-11-07T14:55:56.022Z,10.50
2022-11-07T14:58:26.454Z,10.40
2022-11-07T15:00:57.168Z,10.40
2022-11-07T15:03:33.097Z,10.40
2022-11-07T15:06:02.495Z,10.40
2022-11-07T15:08:32.501Z,10.30
2022-11-07T15:11:07.138Z,10.30
2022-11-07T15:13:36.379Z,10.30
2022-11-07T15:16:07.434Z,10.30
2022-11-07T15:18:40.515Z,10.30
2022-11-07T15:21:28.377Z,10.30
2022-11-07T15:23:57.454Z,10.20
2022-11-07T15:26:32.993Z,10.20
2022-11-07T15:29:14.971Z,10.30
2022-11-07T15:31:49.446Z,10.30
2022-11-07T15:34:29.111Z,10.40
2022-11-07T15:37:12.150Z,10.30
2022-11-07T15:39:40.509Z,10.40
2022-11-07T15:42:10.119Z,10.40
2022-11-07T15:44:38.679Z,10.40
2022-11-07T15:47:07.208Z,10.40
2022-11-07T15:49:36.125Z,10.40
2022-11-07T15:52:04.436Z,10.40
2022-11-07T15:54:32.718Z,10.40
2022-11-07T15:57:05.294Z,10.40
2022-11-07T15:59:37.425Z,10.30
2022-11-07T16:02:07.953Z,10.30
2022-11-07T16:04:39.742Z,10.30
2022-11-07T16:07:16.183Z,10.30
2022-11-07T16:09:45.959Z,10.40
2022-11-07T16:12:14.922Z,10.40
2022-11-07T16:14:45.033Z,10.40
2022-11-07T16:17:15.894Z,10.30
2022-11-07T16:19:44.166Z,10.30
2022-11-07T16:22:12.900Z,10.30
2022-11-07T16:24:41.278Z,10.30
2022-11-07T16:27:11.748Z,10.30
2022-11-07T16:29:44.262Z,10.30
2022-11-07T16:32:17.902Z,10.20
2022-11-07T16:34:47.735Z,10.20
2022-11-07T16:37:16.057Z,10.20
2022-11-07T16:39:44.553Z,10.20
2022-11-07T16:42:16.309Z,10.20
2022-11-07T16:44:45.201Z,10.30
2022-11-07T16:47:19.756Z,10.20
2022-11-07T16:49:52.181Z,10.20
2022-11-07T16:52:25.358Z,10.20
2022-11-07T16:54:53.756Z,10.20
2022-11-07T16:57:24.791Z,10.20
2022-11-07T16:59:53.231Z,10.20
2022-11-07T17:02:24.968Z,10.20
2022-11-07T17:04:55.185Z,10.20
2022-11-07T17:07:24.763Z,10.20
2022-11-07T17:09:55.330Z,10.10
2022-11-07T17:12:24.586Z,10.10
2022-11-07T17:14:54.076Z,10.10
2022-11-07T17:17:26.332Z,10.10
2022-11-07T17:19:54.858Z,10.10
2022-11-07T17:22:23.480Z,10.10
2022-11-07T17:24:51.887Z,10.10
2022-11-07T17:27:23.025Z,10.10
2022-11-07T17:29:52.136Z,10.10
2022-11-07T17:32:27.826Z,10.10
2022-11-07T17:35:25.483Z,10.10
2022-11-07T17:37:44.886Z,10.10
2022-11-07T17:40:19.502Z,10.10
2022-11-07T17:42:47.920Z,10.10
2022-11-07T17:45:16.587Z,10.10
2022-11-07T17:47:46.293Z,10.10
2022-11-07T17:50:20.911Z,10.10
2022-11-07T17:52:52.367Z,10.10
2022-11-07T17:55:21.686Z,10.10
2022-11-07T17:57:50.215Z,10.10
2022-11-07T18:00:21.694Z,10.10
2022-11-07T18:02:53.691Z,10.00
2022-11-07T18:05:28.725Z,10.00
2022-11-07T18:08:00.538Z,10.00
2022-11-07T18:10:30.951Z,10.00
2022-11-07T18:12:59.766Z,10.00
2022-11-07T18:15:28.455Z,10.00
2022-11-07T18:17:58.536Z,10.00
2022-11-07T18:20:35.534Z,10.00
2022-11-07T18:23:04.137Z,9.90
2022-11-07T18:25:32.931Z,9.90
2022-11-07T18:28:04.697Z,9.90
2022-11-07T18:30:33.421Z,9.90
2022-11-07T18:33:03.280Z,9.90
2022-11-07T18:35:31.655Z,9.90
2022-11-07T18:38:00.172Z,9.90
2022-11-07T18:40:28.977Z,9.90
2022-11-07T18:42:59.498Z,9.90
2022-11-07T18:45:28.541Z,9.90
2022-11-07T18:47:58.182Z,9.90
2022-11-07T18:50:28.095Z,9.90
2022-11-07T18:52:57.655Z,9.90
2022-11-07T18:55:27.585Z,9.80
2022-11-07T18:57:59.326Z,9.70
2022-11-07T19:00:28.096Z,9.60
2022-11-07T19:03:00.768Z,9.60
2022-11-07T19:05:46.081Z,9.50
2022-11-07T19:08:20.284Z,9.50
2022-11-07T19:10:49.663Z,9.50
2022-11-07T19:13:19.565Z,9.50
2022-11-07T19:15:55.474Z,9.50
2022-11-07T19:18:26.056Z,9.50
2022-11-07T19:20:56.112Z,9.50
2022-11-07T19:23:24.704Z,9.40
2022-11-07T19:25:54.260Z,9.40
2022-11-07T19:28:23.119Z,9.40
2022-11-07T19:30:51.556Z,9.40
2022-11-07T19:33:20.553Z,9.30
2022-11-07T19:35:58.406Z,9.30
2022-11-07T19:38:28.774Z,9.30
2022-11-07T19:41:03.583Z,9.40
2022-11-07T19:43:32.457Z,9.40
2022-11-07T19:46:01.382Z,9.30
2022-11-07T19:48:29.883Z,9.30
2022-11-07T19:50:58.420Z,9.40
2022-11-07T19:53:28.271Z,9.40
2022-11-07T19:55:56.947Z,9.40
2022-11-07T19:58:25.393Z,9.40
2022-11-07T20:00:53.841Z,9.40
2022-11-07T20:03:22.674Z,9.40
2022-11-07T20:05:51.950Z,9.40
2022-11-07T20:08:20.372Z,9.40
2022-11-07T20:10:50.550Z,9.40
2022-11-07T20:13:19.947Z,9.40
2022-11-07T20:15:50.789Z,9.40
2022-11-07T20:18:28.976Z,9.40
2022-11-07T20:21:10.317Z,9.40
2022-11-07T20:23:38.888Z,9.40
2022-11-07T20:26:09.544Z,9.50
2022-11-07T20:28:38.047Z,9.40
2022-11-07T20:31:09.304Z,9.40
2022-11-07T20:33:37.953Z,9.40
2022-11-07T20:36:09.626Z,9.40
2022-11-07T20:38:38.386Z,9.30
2022-11-07T20:41:09.364Z,9.40
2022-11-07T20:43:39.433Z,9.30
2022-11-07T20:46:09.749Z,9.30
2022-11-07T20:48:39.421Z,9.30
2022-11-07T20:51:09.391Z,9.20
2022-11-07T20:53:38.858Z,9.10
2022-11-07T20:56:09.984Z,9.10
2022-11-07T20:58:39.816Z,9.00
2022-11-07T21:01:09.603Z,8.90
2022-11-07T21:03:37.980Z,8.80
2022-11-07T21:06:11.302Z,8.70
2022-11-07T21:08:39.724Z,8.70
2022-11-07T21:11:10.462Z,8.60
2022-11-07T21:13:39.130Z,8.50
2022-11-07T21:16:08.309Z,8.40
2022-11-07T21:18:37.785Z,8.30
2022-11-07T21:21:07.546Z,8.20
2022-11-07T21:23:36.415Z,8.10
2022-11-07T21:26:09.482Z,8.00
2022-11-07T21:28:40.491Z,8.00
2022-11-07T21:31:11.365Z,8.00
2022-11-07T21:33:41.266Z,7.90
2022-11-07T21:36:11.603Z,7.90
2022-11-07T21:38:40.139Z,7.90
2022-11-07T21:41:10.822Z,7.80
2022-11-07T21:43:39.205Z,7.80
2022-11-07T21:46:09.702Z,7.80
2022-11-07T21:48:38.405Z,7.80
2022-11-07T21:51:08.360Z,7.80
2022-11-07T21:53:38.180Z,7.70
2022-11-07T21:56:07.097Z,7.70
2022-11-07T21:58:36.766Z,7.60
2022-11-07T22:01:05.973Z,7.60
2022-11-07T22:04:04.469Z,7.60
2022-11-07T22:06:24.225Z,7.50
2022-11-07T22:08:52.936Z,7.50
2022-11-07T22:11:21.705Z,7.50
2022-11-07T22:13:51.294Z,7.50
2022-11-07T22:16:21.069Z,7.50
2022-11-07T22:18:50.296Z,7.50
2022-11-07T22:21:20.856Z,7.40
2022-11-07T22:23:49.533Z,7.30
2022-11-07T22:26:19.488Z,7.30
2022-11-07T22:28:47.899Z,7.20
2022-11-07T22:31:20.478Z,7.10
2022-11-07T22:33:49.068Z,7.10
2022-11-07T22:36:17.323Z,7.00
2022-11-07T22:38:46.130Z,6.90
2022-11-07T22:41:16.658Z,6.80
2022-11-07T22:43:45.563Z,6.80
2022-11-07T22:46:16.598Z,6.70
2022-11-07T22:48:47.664Z,6.70
2022-11-07T22:51:17.180Z,6.70
2022-11-07T22:53:45.489Z,6.60
2022-11-07T22:56:15.568Z,6.60
2022-11-07T22:58:44.373Z,6.60
2022-11-07T23:01:18.143Z,6.50
